M I D A S
Marine Information and Data Acquisition System
Tripno 490 of the Zeeleeuw from 2003-04-11 08:23:34 to 2003-04-11 16:45:56
Back to CruiseResearch ActivitiesStationsMapUnderway DataData graphs

EquipmentUnitsComments
TimeDGPSUTC
LatitudeDGPSDM.mWGS84
LongitudeDGPSDM.mWGS84
SpeedMeteo Stationm/sRelative wind speed
DirectionMeteo StationdegRelative wind direction
TemperatureMeteo Stationdeg CelciusAir temperature
PressureMeteo StationPaAtmospheric pressure
HumidityMeteo Station%Relative humidity
Missing or incorrect values are displayed as -999
Metereological data collected by the RV Zeeleeuw from 2003-04-11 08:23:34 to 2003-04-11 16:45:56
Time Latitude Longitude Speed Direction Temperature Pressure Humidity
2003-04-11 08:24 51°39.07 3°19.14 3.2 347 4.3 100940 86
2003-04-11 08:25 51°39.22 3°19.45 3.8 342 4.3 100960 86
2003-04-11 08:26 51°39.37 3°19.76 4 341 4.3 100960 86
2003-04-11 08:27 51°39.53 3°20.07 3.7 331 4.3 100950 86
2003-04-11 08:28 51°39.68 3°20.38 4.4 333 4.4 100950 86
2003-04-11 08:29 51°39.84 3°20.69 4.5 337 4.4 100950 86
2003-04-11 08:30 51°40 3°20.99 4.6 343 4.5 100960 86
2003-04-11 08:31 51°40.15 3°21.3 4.8 345 4.5 100950 86
2003-04-11 08:32 51°40.31 3°21.6 4.8 352 4.6 100950 86
2003-04-11 08:33 51°40.46 3°21.91 5.2 347 4.6 100950 86
2003-04-11 08:34 51°40.61 3°22.22 5.8 350 4.7 100940 86
2003-04-11 08:35 51°40.77 3°22.53 6.2 341 4.7 100950 85
2003-04-11 08:36 51°40.92 3°22.83 6.3 357 4.7 100960 85
2003-04-11 08:37 51°41.08 3°23.14 5.3 347 4.7 100960 85
2003-04-11 08:38 51°41.23 3°23.45 5.5 352 4.7 100960 85
2003-04-11 08:39 51°41.39 3°23.76 5.8 344 4.7 100950 85
2003-04-11 08:40 51°41.55 3°24.06 5.6 350 4.6 100960 85
2003-04-11 08:41 51°41.71 3°24.37 5.4 349 4.6 100960 85
2003-04-11 08:42 51°41.87 3°24.67 5.9 344 4.6 100960 84
2003-04-11 08:43 51°42.03 3°24.97 6.1 352 4.6 100960 84
2003-04-11 08:44 51°42.19 3°25.28 5.2 351 4.6 100950 83
2003-04-11 08:45 51°42.35 3°25.58 5.7 344 4.7 100960 83
2003-04-11 08:46 51°42.51 3°25.89 4.9 350 4.7 100960 83
2003-04-11 08:47 51°42.66 3°26.2 5.2 346 4.7 100950 83
2003-04-11 08:48 51°42.82 3°26.5 5.8 342 4.7 100960 83
2003-04-11 08:49 51°42.98 3°26.81 5.5 353 4.8 100960 83
2003-04-11 08:50 51°43.14 3°27.12 6.2 346 4.8 100960 82
2003-04-11 08:51 51°43.3 3°27.43 5.4 344 4.8 100970 82
2003-04-11 08:52 51°43.44 3°27.75 6 344 4.9 100960 81
2003-04-11 08:53 51°43.58 3°28.08 5.8 348 4.9 100960 81
2003-04-11 08:54 51°43.72 3°28.41 5.4 350 5 100970 81
2003-04-11 08:55 51°43.85 3°28.74 6.1 352 5 100970 81
2003-04-11 08:56 51°43.99 3°29.08 6.3 347 5 100960 80
2003-04-11 08:57 51°44.11 3°29.42 5 344 5 100960 79
2003-04-11 08:58 51°44.24 3°29.77 5.3 348 5.1 100960 78
2003-04-11 08:59 51°44.37 3°30.11 4.9 341 5.1 100970 78
2003-04-11 09:00 51°44.49 3°30.46 4.8 346 5.1 100970 77
2003-04-11 09:01 51°44.62 3°30.8 5 345 5.2 100980 77
2003-04-11 09:02 51°44.75 3°31.16 5 351 5.2 100970 76
2003-04-11 09:03 51°44.88 3°31.51 4.4 345 5.2 100970 75
2003-04-11 09:04 51°45.01 3°31.86 4.1 343 5.3 100970 75
2003-04-11 09:05 51°45.13 3°32.21 4.9 342 5.3 100970 75
2003-04-11 09:06 51°45.26 3°32.56 4.2 354 5.3 100970 74
2003-04-11 09:07 51°45.38 3°32.91 4.4 352 5.4 100970 74
2003-04-11 09:08 51°45.51 3°33.25 4.3 352 5.4 100980 74
2003-04-11 09:09 51°45.63 3°33.59 4.7 355 5.5 100970 74
2003-04-11 09:10 51°45.76 3°33.93 4.7 344 5.6 100970 75
2003-04-11 09:11 51°45.88 3°34.27 4.2 346 5.6 100980 75
2003-04-11 09:12 51°46 3°34.62 5 342 5.6 100980 76
2003-04-11 09:13 51°46.08 3°34.98 4.7 335 5.6 100970 76
2003-04-11 09:14 51°46.16 3°35.36 5.3 331 5.6 100980 77
2003-04-11 09:15 51°46.23 3°35.73 4.5 333 5.5 100990 77
2003-04-11 09:16 51°46.29 3°36.11 5.2 325 5.6 100980 78
2003-04-11 09:17 51°46.37 3°36.48 4.7 337 5.5 100970 77
2003-04-11 09:18 51°46.46 3°36.85 5.3 331 5.5 100970 78
2003-04-11 09:19 51°46.55 3°37.21 5.4 316 5.5 100980 78
2003-04-11 09:20 51°46.65 3°37.58 5.7 311 5.5 100980 79
2003-04-11 09:21 51°46.75 3°37.94 5.8 315 5.5 100970 79
2003-04-11 09:22 51°46.85 3°38.3 6.6 306 5.3 100980 79
2003-04-11 09:23 51°46.95 3°38.65 5.8 310 5.4 100980 80
2003-04-11 09:24 51°47.06 3°39.01 5.8 303 5.3 100980 80
2003-04-11 09:25 51°47.16 3°39.35 3.5 287 5.3 100970 81
2003-04-11 09:26 51°47.25 3°39.5 2.5 206 5.3 100990 82
2003-04-11 09:27 51°47.3 3°39.55 2.2 176 5.3 100980 82
2003-04-11 09:28 51°47.34 3°39.57 3.1 162 5.5 100990 83
2003-04-11 09:29 51°47.37 3°39.6 3.3 181 5.8 101000 83
2003-04-11 09:30 51°47.4 3°39.63 3.8 179 5.8 101000 82
2003-04-11 09:31 51°47.42 3°39.65 2.3 183 5.9 100990 82
2003-04-11 09:32 51°47.45 3°39.68 2.5 149 6.2 100990 82
2003-04-11 09:33 51°47.47 3°39.7 2.7 174 6.4 100980 81
2003-04-11 09:34 51°47.5 3°39.72 2.6 172 6.5 100990 79
2003-04-11 09:35 51°47.52 3°39.76 3.8 194 6.7 101000 79
2003-04-11 09:36 51°47.55 3°39.85 3.7 282 6.5 100990 77
2003-04-11 09:37 51°47.52 3°39.94 6.6 330 6.2 100980 78
2003-04-11 09:38 51°47.46 3°39.95 6.8 335 5.8 100990 79
2003-04-11 09:39 51°47.4 3°39.93 6.9 350 5.6 100990 80
2003-04-11 09:40 51°47.35 3°39.91 6.9 2 5.5 100970 81
2003-04-11 09:41 51°47.32 3°39.85 7.1 22 5.4 101000 82
2003-04-11 09:42 51°47.29 3°39.79 6.8 360 5.4 100980 82
2003-04-11 09:43 51°47.26 3°39.74 6.6 10 5.4 100980 82
2003-04-11 09:44 51°47.24 3°39.7 6.5 1 5.4 100990 83
2003-04-11 09:45 51°47.21 3°39.68 7.4 355 5.3 100980 83
2003-04-11 09:46 51°47.18 3°39.66 7.5 352 5.3 100990 83
2003-04-11 09:47 51°47.15 3°39.63 7.1 1 5.2 100980 83
2003-04-11 09:48 51°47.13 3°39.59 7 358 5.2 100990 83
2003-04-11 09:49 51°47.11 3°39.56 6.9 8 5.2 100990 83
2003-04-11 09:50 51°47.08 3°39.52 6.8 13 5.2 100980 83
2003-04-11 09:51 51°47.06 3°39.48 6.7 3 5.2 100980 83
2003-04-11 09:52 51°47.04 3°39.44 7.5 9 5.2 100990 83
2003-04-11 09:53 51°47.02 3°39.39 7.2 2 5.3 100980 83
2003-04-11 09:54 51°47 3°39.35 6.6 6 5.3 101000 82
2003-04-11 09:55 51°46.98 3°39.31 6.7 351 5.3 100990 82
2003-04-11 09:56 51°46.95 3°39.27 6.8 11 5.3 100980 82
2003-04-11 09:57 51°46.93 3°39.22 7.6 18 5.3 100990 81
2003-04-11 09:58 51°46.92 3°39.17 6.9 15 5.4 100990 81
2003-04-11 09:59 51°46.9 3°39.11 6.5 5 5.5 100990 81
2003-04-11 10:00 51°46.88 3°39.07 6.5 6 5.5 100990 80
2003-04-11 10:01 51°46.86 3°39.02 7.1 2 5.5 100990 80
2003-04-11 10:02 51°46.84 3°38.97 7.3 12 5.6 100990 81
2003-04-11 10:03 51°46.83 3°38.92 6.5 9 5.6 100980 81
2003-04-11 10:04 51°46.81 3°38.87 6.4 358 5.6 100990 82
2003-04-11 10:05 51°46.79 3°38.82 6.3 11 5.5 101000 81
2003-04-11 10:06 51°46.78 3°38.77 6.3 8 5.6 101000 82
2003-04-11 10:07 51°46.76 3°38.72 6.7 10 5.5 100980 81
2003-04-11 10:08 51°46.74 3°38.67 6.5 13 5.5 101000 81
2003-04-11 10:09 51°46.73 3°38.62 6.5 6 5.5 100990 81
2003-04-11 10:10 51°46.71 3°38.57 6.8 10 5.6 101000 81
2003-04-11 10:11 51°46.69 3°38.52 6.6 11 5.5 100990 81
2003-04-11 10:12 51°46.68 3°38.47 6.6 26 5.5 100990 81
2003-04-11 10:13 51°46.69 3°38.42 7.6 46 5.6 100990 81
2003-04-11 10:14 51°46.71 3°38.36 7.2 58 5.6 100990 81
2003-04-11 10:15 51°46.73 3°38.32 7 73 5.6 101000 81
2003-04-11 10:16 51°46.76 3°38.28 6.7 74 5.6 101000 81
2003-04-11 10:17 51°46.79 3°38.25 6 76 5.6 101000 80
2003-04-11 10:18 51°46.81 3°38.23 6.3 77 5.6 101000 81
2003-04-11 10:19 51°46.84 3°38.22 5.5 78 5.5 101000 80
2003-04-11 10:20 51°46.86 3°38.22 6 71 5.5 101000 80
2003-04-11 10:21 51°46.88 3°38.21 5.2 78 5.5 101010 80
2003-04-11 10:22 51°46.91 3°38.19 5.8 75 5.6 101010 81
2003-04-11 10:23 51°46.93 3°38.18 6.9 76 5.6 101020 81
2003-04-11 10:24 51°46.95 3°38.16 5.8 70 5.6 101020 81
2003-04-11 10:25 51°46.98 3°38.13 6 54 5.6 101010 81
2003-04-11 10:26 51°47 3°38.11 6 60 5.5 101010 81
2003-04-11 10:27 51°47.02 3°38.08 6.5 59 5.5 101000 81
2003-04-11 10:28 51°47.03 3°38.05 5.9 39 5.5 101020 81
2003-04-11 10:29 51°47.04 3°38.03 6.2 35 5.6 101010 81
2003-04-11 10:30 51°47.05 3°38.01 5.6 10 5.6 101000 81
2003-04-11 10:31 51°47.05 3°37.99 5.2 358 5.5 101000 80
2003-04-11 10:32 51°47.04 3°37.98 5.7 343 5.5 101010 80
2003-04-11 10:33 51°47.03 3°37.99 5.8 319 5.4 101000 80
2003-04-11 10:34 51°47.03 3°38.01 4.6 286 5.4 101010 79
2003-04-11 10:35 51°47.02 3°38.05 5.4 279 5.3 101010 80
2003-04-11 10:36 51°47.02 3°38.1 6.7 271 5.3 101010 80
2003-04-11 10:37 51°47.02 3°38.16 6.1 275 5.4 101010 80
2003-04-11 10:38 51°47.01 3°38.2 5.1 281 5.4 101010 80
2003-04-11 10:39 51°47.01 3°38.25 5.3 253 5.4 101010 80
2003-04-11 10:40 51°47.03 3°38.31 4.6 212 5.4 101010 80
2003-04-11 10:41 51°47.07 3°38.35 3.5 152 5.4 101020 79
2003-04-11 10:42 51°47.11 3°38.36 5.1 127 5.5 101020 79
2003-04-11 10:43 51°47.14 3°38.36 5.1 120 5.5 101020 79
2003-04-11 10:44 51°47.17 3°38.35 4.5 103 5.5 101030 78
2003-04-11 10:45 51°47.2 3°38.35 3.6 107 5.6 101030 79
2003-04-11 10:46 51°47.22 3°38.35 4.3 106 5.6 101020 79
2003-04-11 10:47 51°47.24 3°38.36 6.2 100 5.5 101020 79
2003-04-11 10:48 51°47.25 3°38.37 6 99 5.6 101020 79
2003-04-11 10:49 51°47.27 3°38.38 5.8 98 5.6 101020 79
2003-04-11 10:50 51°47.28 3°38.4 4.9 102 5.6 101020 78
2003-04-11 10:51 51°47.3 3°38.41 4.6 108 5.7 101020 78
2003-04-11 10:52 51°47.31 3°38.43 3.8 105 5.6 101010 78
2003-04-11 10:53 51°47.33 3°38.39 7.8 52 5.7 101020 79
2003-04-11 10:54 51°47.32 3°38.31 8.6 13 5.9 101010 80
2003-04-11 10:55 51°47.23 3°38.12 13 7 6 100990 79
2003-04-11 10:56 51°47.11 3°37.83 12.8 10 6 100990 79
2003-04-11 10:57 51°47 3°37.53 13.5 8 5.9 100990 79
2003-04-11 10:58 51°46.89 3°37.22 13.4 8 5.9 100990 79
2003-04-11 10:59 51°46.78 3°36.91 13.7 10 5.9 100990 79
2003-04-11 11:00 51°46.67 3°36.61 12.7 5 5.9 100990 79
2003-04-11 11:01 51°46.56 3°36.3 12 9 5.9 101000 78
2003-04-11 11:02 51°46.45 3°35.99 12.9 4 5.9 101000 78
2003-04-11 11:03 51°46.35 3°35.68 12.3 6 6 100990 78
2003-04-11 11:04 51°46.24 3°35.37 13 7 6 101000 78
2003-04-11 11:05 51°46.16 3°35.03 11.2 7 6.1 100990 77
2003-04-11 11:06 51°46.1 3°34.68 11.9 11 6 101000 77
2003-04-11 11:07 51°46.03 3°34.33 11.7 18 6.1 100990 77
2003-04-11 11:08 51°45.96 3°33.98 11.8 9 6.1 100990 77
2003-04-11 11:09 51°45.87 3°33.66 12 8 6.1 100990 77
2003-04-11 11:10 51°45.77 3°33.33 10.5 14 6.1 100990 77
2003-04-11 11:11 51°45.69 3°32.99 11.8 16 6.2 101010 77
2003-04-11 11:12 51°45.62 3°32.64 9.6 16 6.2 100990 76
2003-04-11 11:13 51°45.7 3°32.32 6.4 43 6.2 101000 76
2003-04-11 11:14 51°45.92 3°32.36 2.9 339 6.2 101020 76
2003-04-11 11:15 51°45.96 3°32.7 8 325 6.2 101020 76
2003-04-11 11:16 51°45.77 3°32.81 11 352 6 100970 76
2003-04-11 11:17 51°45.59 3°32.61 11.1 1 6.1 100990 75
2003-04-11 11:18 51°45.43 3°32.37 11 7 6.2 101010 76
2003-04-11 11:19 51°45.27 3°32.09 9.9 11 6.2 101000 75
2003-04-11 11:20 51°45.12 3°31.82 11.2 12 6.3 101000 76
2003-04-11 11:21 51°44.97 3°31.54 11 8 6.3 100990 76
2003-04-11 11:22 51°44.83 3°31.25 11.9 9 6.3 101000 76
2003-04-11 11:23 51°44.69 3°30.96 10.5 12 6.3 101010 76
2003-04-11 11:24 51°44.55 3°30.66 10.9 13 6.3 101000 75
2003-04-11 11:25 51°44.41 3°30.37 11 10 6.4 101010 75
2003-04-11 11:26 51°44.28 3°30.08 9.2 9 6.4 101010 74
2003-04-11 11:27 51°44.15 3°29.79 10.3 6 6.4 101010 74
2003-04-11 11:28 51°44.01 3°29.51 9.6 13 6.4 101010 73
2003-04-11 11:29 51°43.88 3°29.22 10.3 8 6.4 101010 74
2003-04-11 11:30 51°43.74 3°28.93 10.6 360 6.4 101010 74
2003-04-11 11:31 51°43.59 3°28.65 9.8 3 6.4 101020 73
2003-04-11 11:32 51°43.44 3°28.4 10.3 359 6.4 101010 73
2003-04-11 11:33 51°43.26 3°28.17 9.2 358 6.4 101010 73
2003-04-11 11:34 51°43.07 3°27.98 9.8 354 6.4 101010 74
2003-04-11 11:35 51°42.87 3°27.83 10 354 6.4 101020 74
2003-04-11 11:36 51°42.66 3°27.69 9.4 347 6.4 101000 74
2003-04-11 11:37 51°42.46 3°27.56 9.2 353 6.3 101010 74
2003-04-11 11:38 51°42.25 3°27.44 9.5 347 6.3 101010 75
2003-04-11 11:39 51°42.04 3°27.31 9.8 347 6.3 101010 75
2003-04-11 11:40 51°41.84 3°27.19 8.5 348 6.2 101010 75
2003-04-11 11:41 51°41.63 3°27.06 9.1 345 6.2 101020 75
2003-04-11 11:42 51°41.42 3°26.93 9.4 353 6.2 101010 75
2003-04-11 11:43 51°41.21 3°26.8 9.4 345 6.2 101010 75
2003-04-11 11:44 51°41.01 3°26.66 9.3 350 6.2 101010 75
2003-04-11 11:45 51°40.81 3°26.48 9.1 352 6.2 101010 75
2003-04-11 11:46 51°40.61 3°26.31 9.6 352 6.2 101010 75
2003-04-11 11:47 51°40.42 3°26.13 9.4 356 6.2 101010 74
2003-04-11 11:48 51°40.24 3°25.88 9.7 358 6.3 101020 74
2003-04-11 11:49 51°40.09 3°25.61 9.3 1 6.3 101030 74
2003-04-11 11:50 51°39.93 3°25.34 9.2 352 6.3 101020 74
2003-04-11 11:51 51°39.77 3°25.07 9.2 354 6.3 101020 75
2003-04-11 11:52 51°39.62 3°24.81 9.6 346 6.3 101010 75
2003-04-11 11:53 51°39.46 3°24.55 9.4 1 6.3 101020 75
2003-04-11 11:54 51°39.3 3°24.28 8.7 354 6.4 101020 74
2003-04-11 11:55 51°39.15 3°24.02 8.9 356 6.4 101020 74
2003-04-11 11:56 51°38.98 3°23.76 8.7 5 6.4 101020 74
2003-04-11 11:57 51°38.81 3°23.52 9.1 3 6.5 101010 74
2003-04-11 11:58 51°38.63 3°23.31 10.3 350 6.5 101010 74
2003-04-11 11:59 51°38.43 3°23.13 9.5 353 6.4 101020 74
2003-04-11 12:00 51°38.22 3°23.01 9.4 346 6.5 101010 74
2003-04-11 12:01 51°38.01 3°22.93 8.9 343 6.5 101010 74
2003-04-11 12:02 51°37.79 3°22.91 9.7 327 6.5 101020 74
2003-04-11 12:03 51°37.57 3°22.91 8.7 336 6.5 101010 74
2003-04-11 12:04 51°37.36 3°22.96 8.7 340 6.5 101010 74
2003-04-11 12:05 51°37.16 3°23.06 8.4 337 6.6 101010 74
2003-04-11 12:06 51°36.95 3°23.16 9.2 333 6.6 101010 74
2003-04-11 12:07 51°36.75 3°23.28 8.5 329 6.6 101000 74
2003-04-11 12:08 51°36.55 3°23.4 7.7 343 6.6 101010 73
2003-04-11 12:09 51°36.35 3°23.56 7.6 337 6.6 101010 74
2003-04-11 12:10 51°36.15 3°23.71 8 341 6.5 101010 73
2003-04-11 12:11 51°35.96 3°23.86 8.4 340 6.6 101020 74
2003-04-11 12:12 51°35.79 3°24.04 6.5 333 6.6 101020 74
2003-04-11 12:13 51°35.7 3°24.22 3.3 327 6.5 101020 74
2003-04-11 12:14 51°35.64 3°24.31 2.6 317 6.4 101030 75
2003-04-11 12:15 51°35.57 3°24.37 3.8 330 6.4 101030 75
2003-04-11 12:16 51°35.47 3°24.47 4.8 328 6.3 101020 75
2003-04-11 12:17 51°35.37 3°24.59 4.4 341 6.3 101020 76
2003-04-11 12:18 51°35.28 3°24.71 4.5 333 6.4 101030 76
2003-04-11 12:19 51°35.18 3°24.83 4.2 338 6.4 101020 76
2003-04-11 12:20 51°35.09 3°24.91 2.9 313 6.4 101030 75
2003-04-11 12:21 51°35.05 3°24.96 1.9 244 6.4 101030 76
2003-04-11 12:22 51°35.04 3°24.97 2.5 250 6.5 101030 76
2003-04-11 12:23 51°35.04 3°24.97 2.7 260 6.6 101030 76
2003-04-11 12:24 51°35.03 3°24.96 2.6 271 6.6 101030 75
2003-04-11 12:25 51°35.03 3°24.95 2.7 269 6.6 101030 73
2003-04-11 12:26 51°35.02 3°24.94 2.8 279 6.6 101030 73
2003-04-11 12:27 51°35.02 3°24.93 3.2 286 6.5 101030 72
2003-04-11 12:28 51°35.01 3°24.92 3.5 273 6.5 101040 72
2003-04-11 12:29 51°35 3°24.91 3.4 271 6.5 101030 73
2003-04-11 12:30 51°34.99 3°24.91 2.7 275 6.6 101030 73
2003-04-11 12:31 51°34.98 3°24.9 2.9 269 6.6 101040 73
2003-04-11 12:32 51°34.97 3°24.89 2.8 280 6.6 101030 73
2003-04-11 12:33 51°34.95 3°24.89 3.1 269 6.7 101040 73
2003-04-11 12:34 51°34.94 3°24.89 3.2 260 6.7 101040 73
2003-04-11 12:35 51°34.93 3°24.9 2.8 245 6.8 101030 73
2003-04-11 12:36 51°34.92 3°24.91 2.8 253 6.8 101030 73
2003-04-11 12:37 51°34.91 3°24.93 2.4 236 6.8 101040 73
2003-04-11 12:38 51°34.9 3°24.94 1.8 233 6.9 101030 72
2003-04-11 12:39 51°34.89 3°24.96 2 213 7 101030 73
2003-04-11 12:40 51°34.89 3°24.99 1.6 217 7 101030 72
2003-04-11 12:41 51°34.89 3°25.01 1.4 207 7.1 101030 73
2003-04-11 12:42 51°34.89 3°25.03 2.2 180 7 101020 72
2003-04-11 12:43 51°34.9 3°25.05 1.4 177 6.9 101030 71
2003-04-11 12:44 51°34.91 3°25.07 1.3 152 7 101030 72
2003-04-11 12:45 51°34.92 3°25.09 2.7 136 7.2 101020 71
2003-04-11 12:46 51°34.94 3°25.1 2 127 7.1 101030 70
2003-04-11 12:47 51°34.96 3°25.13 1.2 157 7.1 101030 71
2003-04-11 12:48 51°34.97 3°25.18 1.8 208 7.2 101030 71
2003-04-11 12:49 51°34.96 3°25.22 2.3 245 7.2 101030 70
2003-04-11 12:50 51°34.93 3°25.25 2.5 277 7.1 101030 70
2003-04-11 12:51 51°34.9 3°25.26 4 299 7.1 101030 70
2003-04-11 12:52 51°34.86 3°25.25 3.8 301 7 101020 71
2003-04-11 12:53 51°34.82 3°25.24 3.1 298 6.8 101020 71
2003-04-11 12:54 51°34.79 3°25.26 2.5 242 6.7 101020 72
2003-04-11 12:55 51°34.77 3°25.31 2.9 253 6.8 101030 73
2003-04-11 12:56 51°34.75 3°25.36 2.8 262 6.9 101020 73
2003-04-11 12:57 51°34.73 3°25.41 2.5 260 6.9 101030 72
2003-04-11 12:58 51°34.7 3°25.47 2.5 258 6.9 101030 72
2003-04-11 12:59 51°34.68 3°25.52 3.5 267 6.9 101030 72
2003-04-11 13:00 51°34.65 3°25.57 3.1 259 7 101020 72
2003-04-11 13:01 51°34.61 3°25.61 3.9 273 7 101030 72
2003-04-11 13:02 51°34.57 3°25.64 3.9 280 6.9 101030 71
2003-04-11 13:03 51°34.52 3°25.67 4.3 297 6.8 101030 72
2003-04-11 13:04 51°34.47 3°25.68 4.8 298 6.7 101020 72
2003-04-11 13:05 51°34.42 3°25.68 4.5 296 6.5 101030 72
2003-04-11 13:06 51°34.37 3°25.7 4.5 277 6.5 101030 72
2003-04-11 13:07 51°34.33 3°25.72 3.4 280 6.5 101030 73
2003-04-11 13:08 51°34.28 3°25.75 3.8 277 6.5 101030 73
2003-04-11 13:09 51°34.24 3°25.79 3.1 253 6.6 101020 74
2003-04-11 13:10 51°34.22 3°25.84 2.9 239 6.6 101030 74
2003-04-11 13:11 51°34.2 3°25.88 2.9 239 6.8 101030 74
2003-04-11 13:12 51°34.18 3°25.91 3 245 6.8 101030 73
2003-04-11 13:13 51°34.16 3°25.93 3.1 253 6.8 101030 72
2003-04-11 13:14 51°34.14 3°25.95 2.8 247 6.9 101030 72
2003-04-11 13:15 51°34.12 3°25.97 3.2 248 7 101030 72
2003-04-11 13:16 51°34.1 3°25.98 3.2 250 7 101030 72
2003-04-11 13:17 51°34.08 3°25.99 3.1 253 7 101030 71
2003-04-11 13:18 51°34.05 3°25.99 3.3 263 7 101030 72
2003-04-11 13:19 51°34.03 3°25.99 4.1 275 7 101020 71
2003-04-11 13:20 51°34.01 3°26 3.9 272 6.9 101030 69
2003-04-11 13:21 51°33.99 3°25.99 3.9 274 6.9 101030 69
2003-04-11 13:22 51°33.97 3°25.99 3.7 272 6.9 101030 69
2003-04-11 13:23 51°33.95 3°25.99 3.3 288 6.8 101030 68
2003-04-11 13:24 51°33.92 3°25.98 2.9 283 6.8 101030 68
2003-04-11 13:25 51°33.9 3°25.97 3.3 279 6.7 101030 69
2003-04-11 13:26 51°33.88 3°25.97 3.2 280 6.7 101020 70
2003-04-11 13:27 51°33.86 3°25.96 3.3 283 6.6 101020 69
2003-04-11 13:28 51°33.84 3°25.95 2.8 291 6.6 101020 70
2003-04-11 13:29 51°33.82 3°25.94 3 281 6.6 101020 70
2003-04-11 13:30 51°33.81 3°25.93 2.7 292 6.6 101020 71
2003-04-11 13:31 51°33.79 3°25.92 2.6 308 6.7 101020 72
2003-04-11 13:32 51°33.78 3°25.91 3.4 306 6.7 101020 72
2003-04-11 13:33 51°33.75 3°25.89 3.4 315 6.6 101020 72
2003-04-11 13:34 51°33.73 3°25.86 3.3 338 6.6 101020 72
2003-04-11 13:35 51°33.73 3°25.78 4.3 35 6.7 101020 72
2003-04-11 13:36 51°33.78 3°25.67 6 19 6.9 101020 72
2003-04-11 13:37 51°33.88 3°25.4 9 1 7 101010 71
2003-04-11 13:38 51°33.96 3°25.05 9.8 5 7 101010 70
2003-04-11 13:39 51°34.04 3°24.71 9.8 2 6.9 101000 70
2003-04-11 13:40 51°34.12 3°24.36 9.3 1 6.9 101010 70
2003-04-11 13:41 51°34.19 3°24.01 10.4   6.9 101000 70
2003-04-11 13:42 51°34.27 3°23.66 10 359 6.8 101000 70
2003-04-11 13:43 51°34.34 3°23.31 9 357 6.8 101010 70
2003-04-11 13:44 51°34.38 3°22.94 9.9 359 6.8 101010 71
2003-04-11 13:45 51°34.42 3°22.57 9 1 6.8 101000 70
2003-04-11 13:46 51°34.46 3°22.2 9.5 359 6.7 101010 70
2003-04-11 13:47 51°34.51 3°21.83 9.4 354 6.7 101010 71
2003-04-11 13:48 51°34.55 3°21.46 9.6 359 6.7 101010 71
2003-04-11 13:49 51°34.59 3°21.09 9.6 357 6.7 101000 71
2003-04-11 13:50 51°34.63 3°20.71 10.1 2 6.8 101010 72
2003-04-11 13:51 51°34.68 3°20.33 9.7 357 6.8 101000 72
2003-04-11 13:52 51°34.72 3°19.95 9.7 2 6.8 101000 72
2003-04-11 13:53 51°34.72 3°19.57 9.9 1 6.7 100990 72
2003-04-11 13:54 51°34.73 3°19.21 8.4 354 6.7 101000 72
2003-04-11 13:55 51°34.77 3°19.04 3.9 33 6.8 101010 72
2003-04-11 13:56 51°34.82 3°19 2.7 65 6.8 101010 72
2003-04-11 13:57 51°34.85 3°19.01 2.2 79 6.9 101010 73
2003-04-11 13:58 51°34.88 3°19.02 2.2 99 6.9 101010 72
2003-04-11 13:59 51°34.92 3°19.06 1.6 98 6.9 101010 72
2003-04-11 14:00 51°34.95 3°19.13 0.7 107 6.9 101010 71
2003-04-11 14:01 51°34.97 3°19.22 0.9 130 7 101030 71
2003-04-11 14:02 51°34.99 3°19.3 0.7 140 7 101020 71
2003-04-11 14:03 51°35.01 3°19.36 1.2 124 7.1 101010 70
2003-04-11 14:04 51°35.03 3°19.41 1 110 7.1 101010 70
2003-04-11 14:05 51°35.06 3°19.45 1.1 96 7.1 101030 70
2003-04-11 14:06 51°35.08 3°19.49 0.8 124 7.1 101020 69
2003-04-11 14:07 51°35.1 3°19.54 0.9 109 7.1 101020 70
2003-04-11 14:08 51°35.13 3°19.57 1.4 113 7.1 101020 69
2003-04-11 14:09 51°35.16 3°19.6 0.9 108 7.1 101020 69
2003-04-11 14:10 51°35.18 3°19.65 1.1 113 7.1 101020 70
2003-04-11 14:11 51°35.2 3°19.7 1.5 117 7.2 101000 70
2003-04-11 14:12 51°35.23 3°19.74 1.6 99 7.2 101010 70
2003-04-11 14:13 51°35.25 3°19.79 1.2 120 7.1 101010 69
2003-04-11 14:14 51°35.27 3°19.85 0.8 112 7.1 101000 69
2003-04-11 14:15 51°35.3 3°19.9 1.3 99 7.1 101000 69
2003-04-11 14:16 51°35.32 3°19.94 0.9 107 7.1 101000 69
2003-04-11 14:17 51°35.35 3°19.98 1.6 114 7.1 101000 69
2003-04-11 14:18 51°35.38 3°20.03 1.8 98 7.1 101000 69
2003-04-11 14:19 51°35.4 3°20.08 1.2 108 7 101000 69
2003-04-11 14:20 51°35.43 3°20.12 1.2 90 7.1 101000 69
2003-04-11 14:21 51°35.45 3°20.17 1.6 98 7 101000 69
2003-04-11 14:22 51°35.48 3°20.21 1.3 105 7 101000 69
2003-04-11 14:23 51°35.51 3°20.25 0.8 106 7 101000 70
2003-04-11 14:24 51°35.54 3°20.28 1.3 102 7 101000 70
2003-04-11 14:25 51°35.57 3°20.31 1.4 103 7 101000 70
2003-04-11 14:26 51°35.6 3°20.35 1.2 110 6.9 101010 70
2003-04-11 14:27 51°35.63 3°20.39 1.3 118 6.9 101000 69
2003-04-11 14:28 51°35.65 3°20.44 2.3 81 6.9 101000 69
2003-04-11 14:29 51°35.68 3°20.48 1.3 111 6.9 101010 69
2003-04-11 14:30 51°35.7 3°20.52 1.5 107 6.9 101000 69
2003-04-11 14:31 51°35.73 3°20.57 1.8 122 6.9 101000 69
2003-04-11 14:32 51°35.75 3°20.61 1.3 137 6.9 101000 69
2003-04-11 14:33 51°35.75 3°20.66 1.6 159 7 101000 69
2003-04-11 14:34 51°35.75 3°20.69 0.9 178 7 101010 70
2003-04-11 14:35 51°35.74 3°20.73 0.9 174 7.2 101010 70
2003-04-11 14:36 51°35.73 3°20.77 1.1 192 7.4 101000 69
2003-04-11 14:37 51°35.72 3°20.8 1.3 167 7.4 101000 69
2003-04-11 14:38 51°35.71 3°20.83 1.4 144 7.4 101000 69
2003-04-11 14:39 51°35.7 3°20.85 1.5 158 7.5 101000 69
2003-04-11 14:40 51°35.69 3°20.87 1.1 163 7.7 101010 69
2003-04-11 14:41 51°35.68 3°20.89 1.3 154 7.7 101000 68
2003-04-11 14:42 51°35.66 3°20.91 1.5 169 7.9 101010 68
2003-04-11 14:43 51°35.65 3°20.92 1.4 180 7.9 101010 67
2003-04-11 14:44 51°35.65 3°20.94 1.6 120 7.9 101000 66
2003-04-11 14:45 51°35.66 3°20.95 2.6 87 7.7 101000 66
2003-04-11 14:46 51°35.67 3°20.95 2.3 60 7.7 101000 67
2003-04-11 14:47 51°35.68 3°20.92 3.3 23 7.7 101000 67
2003-04-11 14:48 51°35.67 3°20.81 5.1 341 7.7 101000 66
2003-04-11 14:49 51°35.57 3°20.6 8.4 347 7.5 100990 67
2003-04-11 14:50 51°35.42 3°20.31 8.6 342 7.4 100980 69
2003-04-11 14:51 51°35.26 3°20.01 8.7 345 7.3 100990 69
2003-04-11 14:52 51°35.11 3°19.71 8.7 349 7.2 100980 69
2003-04-11 14:53 51°34.96 3°19.4 9.3 344 7.1 100980 70
2003-04-11 14:54 51°34.81 3°19.1 8.7 339 7.1 100990 70
2003-04-11 14:55 51°34.65 3°18.81 9.1 343 7.1 100980 71
2003-04-11 14:56 51°34.5 3°18.5 9.3 339 7 100990 70
2003-04-11 14:57 51°34.35 3°18.21 8.8 345 6.9 100990 70
2003-04-11 14:58 51°34.2 3°17.9 9 344 6.9 100990 71
2003-04-11 14:59 51°34.04 3°17.6 8.7 338 6.9 100980 71
2003-04-11 15:00 51°33.89 3°17.3 8.2 344 6.9 100980 71
2003-04-11 15:01 51°33.74 3°17.01 8.3 345 6.9 100990 71
2003-04-11 15:02 51°33.58 3°16.71 8.2 345 6.9 100990 71
2003-04-11 15:03 51°33.43 3°16.42 8.3 346 6.9 100990 71
2003-04-11 15:04 51°33.28 3°16.12 7.6 337 6.9 100990 71
2003-04-11 15:05 51°33.13 3°15.82 7.8 349 6.9 100990 70
2003-04-11 15:06 51°32.99 3°15.51 7.8 345 6.9 100990 71
2003-04-11 15:07 51°32.84 3°15.21 8.6 344 6.9 100990 71
2003-04-11 15:08 51°32.65 3°14.98 7 342 6.9 100990 70
2003-04-11 15:09 51°32.46 3°14.75 7.2 341 6.9 100990 71
2003-04-11 15:10 51°32.29 3°14.48 7.5 345 6.9 100990 71
2003-04-11 15:11 51°32.13 3°14.19 7.1 336 6.9 100980 71
2003-04-11 15:12 51°31.97 3°13.91 7.4 341 6.9 100990 71
2003-04-11 15:13 51°31.81 3°13.62 7.2 346 6.9 100990 71
2003-04-11 15:14 51°31.65 3°13.34 7.3 348 6.9 100990 71
2003-04-11 15:15 51°31.5 3°13.04 7.4 345 6.9 100990 70
2003-04-11 15:16 51°31.34 3°12.74 7 343 7 100990 70
2003-04-11 15:17 51°31.19 3°12.45 7.7 343 7 100990 70
2003-04-11 15:18 51°31.04 3°12.15 7 339 6.9 100990 70
2003-04-11 15:19 51°30.88 3°11.85 7.6 344 6.9 100990 69
2003-04-11 15:20 51°30.73 3°11.55 7.2 338 6.9 100980 69
2003-04-11 15:21 51°30.57 3°11.26 7.5 339 7 100990 69
2003-04-11 15:22 51°30.44 3°10.94 7.2 341 7 100990 68
2003-04-11 15:23 51°30.3 3°10.62 7 342 7 100980 69
2003-04-11 15:24 51°30.17 3°10.3 7.2 336 7 100990 68
2003-04-11 15:25 51°30.03 3°9.99 6.8 340 7.1 100990 68
2003-04-11 15:26 51°29.89 3°9.67 7.5 340 7.1 100990 68
2003-04-11 15:27 51°29.76 3°9.35 8 333 7 100990 68
2003-04-11 15:28 51°29.62 3°9.03 7.9 343 7 100980 68
2003-04-11 15:29 51°29.48 3°8.71 7.1 338 7 100990 68
2003-04-11 15:30 51°29.35 3°8.4 8 343 7 100990 68
2003-04-11 15:31 51°29.21 3°8.08 7.7 336 7 100990 68
2003-04-11 15:32 51°29.07 3°7.76 8.1 338 7 100980 68
2003-04-11 15:33 51°28.93 3°7.44 7.3 344 7 100980 69
2003-04-11 15:34 51°28.79 3°7.12 7.1 347 7 100990 69
2003-04-11 15:35 51°28.66 3°6.79 7.7 340 7 100990 69
2003-04-11 15:36 51°28.52 3°6.47 6.6 346 6.9 100990 68
2003-04-11 15:37 51°28.38 3°6.15 7.2 335 7 100990 69
2003-04-11 15:38 51°28.25 3°5.83 6.1 345 6.9 100990 69
2003-04-11 15:39 51°28.11 3°5.5 7 334 7 100990 70
2003-04-11 15:40 51°27.97 3°5.18 7 341 7 100990 70
2003-04-11 15:41 51°27.83 3°4.86 6.9 345 7 100990 70
2003-04-11 15:42 51°27.7 3°4.54 6.2 341 7 101000 71
2003-04-11 15:43 51°27.56 3°4.21 7.3 340 7 101000 71
2003-04-11 15:44 51°27.42 3°3.89 6.8 341 7 100990 70
2003-04-11 15:45 51°27.28 3°3.56 7.1 343 7 100990 70
2003-04-11 15:46 51°27.15 3°3.24 7.5 338 7 101000 70
2003-04-11 15:47 51°27.01 3°2.91 6.8 344 7 100990 69
2003-04-11 15:48 51°26.87 3°2.59 7 338 7 101000 70
2003-04-11 15:49 51°26.73 3°2.26 7 334 7 101000 70
2003-04-11 15:50 51°26.6 3°1.94 7.1 337 7 101000 70
2003-04-11 15:51 51°26.46 3°1.61 7.1 338 7 101000 69
2003-04-11 15:52 51°26.32 3°1.28 7.1 339 7 101000 70
2003-04-11 15:53 51°26.16 3°1 6.6 342 7 101000 70
2003-04-11 15:54 51°25.95 3°0.79 6.1 338 7 101000 70
2003-04-11 15:55 51°25.74 3°0.58 6.2 348 7 101000 71
2003-04-11 15:56 51°25.53 3°0.37 6 345 7 101000 71
2003-04-11 15:57 51°25.32 3°0.17 5.8 345 7 101010 70
2003-04-11 15:58 51°25.11 2°59.96 5.4 344 6.9 101000 69
2003-04-11 15:59 51°24.91 2°59.76 5.9 346 7 101010 70
2003-04-11 16:00 51°24.7 2°59.55 6 345 6.9 101000 69
2003-04-11 16:01 51°24.49 2°59.36 6.2 340 6.9 101000 69
2003-04-11 16:02 51°24.28 2°59.16 5.6 340 7 101000 69
2003-04-11 16:03 51°24.07 2°58.97 5.7 348 6.9 101010 69
2003-04-11 16:04 51°23.86 2°58.77 5.7 341 6.9 101000 70
2003-04-11 16:05 51°23.65 2°58.57 5.6 350 6.9 101000 70
2003-04-11 16:06 51°23.44 2°58.37 4.9 346 6.9 101000 70
2003-04-11 16:07 51°23.23 2°58.17 6 337 6.9 101000 71
2003-04-11 16:08 51°23.02 2°57.97 5.7 342 6.8 101000 71
2003-04-11 16:09 51°22.81 2°57.77 5.2 343 6.8 101000 71
2003-04-11 16:10 51°22.61 2°57.55 5.6 339 6.9 101000 71
2003-04-11 16:11 51°22.41 2°57.33 5.1 338 6.8 101000 70
2003-04-11 16:12 51°22.21 2°57.11 4.3 345 6.8 101000 71
2003-04-11 16:13 51°22.01 2°56.89 4.7 344 6.8 101000 71
2003-04-11 16:14 51°21.82 2°56.67 4.9 342 6.8 101000 71
2003-04-11 16:15 51°21.62 2°56.45 4.6 343 6.8 101000 71
2003-04-11 16:16 51°21.42 2°56.23 4.6 345 6.8 101000 72
2003-04-11 16:17 51°21.23 2°56 4.7 350 6.8 101010 71
2003-04-11 16:18 51°21.03 2°55.77 4.7 347 6.8 101000 72
2003-04-11 16:19 51°20.84 2°55.55 4.5 345 6.8 101010 72
2003-04-11 16:20 51°20.64 2°55.32 4.8 340 6.8 101010 71
2003-04-11 16:21 51°20.45 2°55.09 4.7 348 6.8 101010 72
2003-04-11 16:22 51°20.25 2°54.86 4.4 344 6.8 101010 72
2003-04-11 16:23 51°20.06 2°54.63 4.4 342 6.8 101000 72
2003-04-11 16:24 51°19.87 2°54.4 4.6 337 6.8 101010 72
2003-04-11 16:25 51°19.67 2°54.18 4.8 344 6.8 101010 73
2003-04-11 16:26 51°19.48 2°53.95 4.1 349 6.8 101010 72
2003-04-11 16:27 51°19.28 2°53.73 4.2 342 6.8 101010 73
2003-04-11 16:28 51°19.09 2°53.5 4.6 358 6.8 101010 73
2003-04-11 16:29 51°18.88 2°53.29 4.1 355 6.9 101010 73
2003-04-11 16:30 51°18.68 2°53.09 4.5 1 6.8 101000 71
2003-04-11 16:31 51°18.47 2°52.88 3.9   6.8 101010 71
2003-04-11 16:32 51°18.26 2°52.69 4.1 2 6.9 101010 72
2003-04-11 16:33 51°18.05 2°52.51 4.2 357 6.9 101000 72
2003-04-11 16:34 51°17.82 2°52.38 4.3 10 6.9 101000 72
2003-04-11 16:35 51°17.58 2°52.28 4.8 15 6.9 101000 72
2003-04-11 16:36 51°17.34 2°52.23 5.3 20 6.9 101000 72
2003-04-11 16:37 51°17.12 2°52.35 6.4 27 6.9 100990 72
2003-04-11 16:38 51°16.93 2°52.57 7.5 22 7 100990 71
2003-04-11 16:39 51°16.73 2°52.77 7.4 25 7 100990 71
2003-04-11 16:40 51°16.52 2°52.96 7.5 27 7 100980 71
2003-04-11 16:41 51°16.32 2°53.15 7.9 29 7 100990 71
2003-04-11 16:42 51°16.12 2°53.34 7.4 33 7 100980 72
2003-04-11 16:43 51°15.94 2°53.5 7.3 35 7 100980 72
2003-04-11 16:44 51°15.76 2°53.67 7.9 35 6.9 100980 72
2003-04-11 16:45 51°15.58 2°53.84 7.6 34 6.9 100990 72